Terminal Aerodrome Forecast
Issued by NWS Jackson, KY

Home | Current Version | Previous Version | Text Only | Print | Product List | Glossary On
Versions: 1 2 3 4 5 6 7 8 9 10 11 12 13 14 15 16 17 18
000
FTUS43 KJKL 210400 AAA
TAFJKL
TAF AMD
KJKL 210404Z 2104/2124 VRB03KT P6SM VCSH SCT030 BKN050
     FM210700 00000KT 5SM BR SCT250
     FM210800 00000KT 1SM BR SCT001
     FM210900 00000KT 1/2SM FG BKN001
     FM211300 00000KT 4SM BR FEW001 BKN015
     FM211430 VRB03KT P6SM SCT040=

USA.gov is the U.S. government's official web portal to all federal, state and local government web resources and services.